sensor_id;sensor_type;location;lat;lon;timestamp;temperature;humidity
463;DHT22;218;51.902;9.542;2023-04-03T00:00:40;7.00;1.00
463;DHT22;218;51.902;9.542;2023-04-03T00:08:03;7.00;1.00
463;DHT22;218;51.902;9.542;2023-04-03T00:10:33;6.90;1.00
463;DHT22;218;51.902;9.542;2023-04-03T00:20:22;6.70;1.00
463;DHT22;218;51.902;9.542;2023-04-03T00:22:50;6.60;1.00
463;DHT22;218;51.902;9.542;2023-04-03T00:32:42;6.50;1.00
463;DHT22;218;51.902;9.542;2023-04-03T00:37:36;6.60;1.00
463;DHT22;218;51.902;9.542;2023-04-03T00:40:05;6.50;1.00
463;DHT22;218;51.902;9.542;2023-04-03T00:42:34;6.50;1.00
463;DHT22;218;51.902;9.542;2023-04-03T00:50:36;6.40;1.00
463;DHT22;218;51.902;9.542;2023-04-03T00:55:32;6.20;1.00
463;DHT22;218;51.902;9.542;2023-04-03T00:58:02;6.30;1.00
463;DHT22;218;51.902;9.542;2023-04-03T01:00:30;6.20;1.00
463;DHT22;218;51.902;9.542;2023-04-03T01:02:57;6.10;1.00
463;DHT22;218;51.902;9.542;2023-04-03T01:07:51;6.10;1.00
463;DHT22;218;51.902;9.542;2023-04-03T01:10:19;6.00;1.00
463;DHT22;218;51.902;9.542;2023-04-03T01:12:48;5.80;1.00
463;DHT22;218;51.902;9.542;2023-04-03T01:23:16;5.80;1.00
463;DHT22;218;51.902;9.542;2023-04-03T01:25:48;5.80;1.00
463;DHT22;218;51.902;9.542;2023-04-03T01:28:17;5.80;1.00
463;DHT22;218;51.902;9.542;2023-04-03T01:30:50;5.80;1.00
463;DHT22;218;51.902;9.542;2023-04-03T01:33:21;5.80;1.00
463;DHT22;218;51.902;9.542;2023-04-03T01:35:48;5.70;1.00
463;DHT22;218;51.902;9.542;2023-04-03T01:38:15;5.80;1.00
463;DHT22;218;51.902;9.542;2023-04-03T01:43:09;5.90;1.00
463;DHT22;218;51.902;9.542;2023-04-03T01:45:36;5.80;1.00
463;DHT22;218;51.902;9.542;2023-04-03T01:48:03;5.90;1.00
463;DHT22;218;51.902;9.542;2023-04-03T01:50:32;5.90;1.00
463;DHT22;218;51.902;9.542;2023-04-03T01:52:59;5.90;1.00
463;DHT22;218;51.902;9.542;2023-04-03T01:55:26;6.00;1.00
463;DHT22;218;51.902;9.542;2023-04-03T01:57:53;6.00;1.00
463;DHT22;218;51.902;9.542;2023-04-03T02:00:21;5.90;1.00
463;DHT22;218;51.902;9.542;2023-04-03T02:02:48;5.90;1.00
463;DHT22;218;51.902;9.542;2023-04-03T02:05:15;5.80;1.00
463;DHT22;218;51.902;9.542;2023-04-03T02:07:43;5.70;1.00
463;DHT22;218;51.902;9.542;2023-04-03T02:10:11;5.70;1.00
463;DHT22;218;51.902;9.542;2023-04-03T02:12:38;5.70;1.00
463;DHT22;218;51.902;9.542;2023-04-03T02:15:06;5.60;1.00
463;DHT22;218;51.902;9.542;2023-04-03T02:17:33;5.70;1.00
463;DHT22;218;51.902;9.542;2023-04-03T02:20:01;5.60;1.00
463;DHT22;218;51.902;9.542;2023-04-03T02:22:28;5.60;1.00
463;DHT22;218;51.902;9.542;2023-04-03T02:24:57;5.60;1.00
463;DHT22;218;51.902;9.542;2023-04-03T02:27:24;5.50;1.00
463;DHT22;218;51.902;9.542;2023-04-03T02:29:51;5.50;1.00
463;DHT22;218;51.902;9.542;2023-04-03T02:34:45;5.40;1.00
463;DHT22;218;51.902;9.542;2023-04-03T02:37:12;5.40;1.00
463;DHT22;218;51.902;9.542;2023-04-03T02:39:39;6.50;1.00
463;DHT22;218;51.902;9.542;2023-04-03T02:42:07;6.20;1.00
463;DHT22;218;51.902;9.542;2023-04-03T02:44:34;5.20;1.00
463;DHT22;218;51.902;9.542;2023-04-03T02:47:01;5.10;1.00
463;DHT22;218;51.902;9.542;2023-04-03T02:49:28;5.30;1.00
463;DHT22;218;51.902;9.542;2023-04-03T02:51:55;5.00;1.00
463;DHT22;218;51.902;9.542;2023-04-03T02:54:22;5.00;1.00
463;DHT22;218;51.902;9.542;2023-04-03T02:56:53;5.00;1.00
463;DHT22;218;51.902;9.542;2023-04-03T02:59:21;4.90;1.00
463;DHT22;218;51.902;9.542;2023-04-03T03:01:48;4.90;1.00
463;DHT22;218;51.902;9.542;2023-04-03T03:04:15;4.80;1.00
463;DHT22;218;51.902;9.542;2023-04-03T03:06:43;6.40;1.00
463;DHT22;218;51.902;9.542;2023-04-03T03:09:10;4.80;1.00
463;DHT22;218;51.902;9.542;2023-04-03T03:11:38;4.80;1.00
463;DHT22;218;51.902;9.542;2023-04-03T03:14:04;4.80;1.00
463;DHT22;218;51.902;9.542;2023-04-03T03:16:33;4.70;1.00
463;DHT22;218;51.902;9.542;2023-04-03T03:19:00;4.90;1.00
463;DHT22;218;51.902;9.542;2023-04-03T03:21:27;4.70;1.00
463;DHT22;218;51.902;9.542;2023-04-03T03:23:54;4.70;1.00
463;DHT22;218;51.902;9.542;2023-04-03T03:26:21;4.70;1.00
463;DHT22;218;51.902;9.542;2023-04-03T03:28:48;4.70;1.00
463;DHT22;218;51.902;9.542;2023-04-03T03:31:15;4.70;1.00
463;DHT22;218;51.902;9.542;2023-04-03T03:33:43;4.70;1.00
463;DHT22;218;51.902;9.542;2023-04-03T03:36:10;5.30;1.00
463;DHT22;218;51.902;9.542;2023-04-03T03:38:38;4.80;1.00
463;DHT22;218;51.902;9.542;2023-04-03T03:41:05;4.80;1.00
463;DHT22;218;51.902;9.542;2023-04-03T03:43:32;4.80;1.00
463;DHT22;218;51.902;9.542;2023-04-03T03:45:59;4.80;1.00
463;DHT22;218;51.902;9.542;2023-04-03T03:48:26;4.90;1.00
463;DHT22;218;51.902;9.542;2023-04-03T03:50:54;4.90;1.00
463;DHT22;218;51.902;9.542;2023-04-03T03:53:21;4.90;1.00
463;DHT22;218;51.902;9.542;2023-04-03T03:55:48;4.90;1.00
463;DHT22;218;51.902;9.542;2023-04-03T03:58:15;6.50;1.00
463;DHT22;218;51.902;9.542;2023-04-03T04:00:42;5.00;1.00
463;DHT22;218;51.902;9.542;2023-04-03T04:03:09;5.00;1.00
463;DHT22;218;51.902;9.542;2023-04-03T04:05:36;5.20;1.00
463;DHT22;218;51.902;9.542;2023-04-03T04:08:05;5.00;1.00
463;DHT22;218;51.902;9.542;2023-04-03T04:10:32;5.00;1.00
463;DHT22;218;51.902;9.542;2023-04-03T04:12:59;5.00;1.00
463;DHT22;218;51.902;9.542;2023-04-03T04:15:26;5.00;1.00
463;DHT22;218;51.902;9.542;2023-04-03T04:17:53;5.30;1.00
463;DHT22;218;51.902;9.542;2023-04-03T04:20:21;4.90;1.00
463;DHT22;218;51.902;9.542;2023-04-03T04:22:48;5.00;1.00
463;DHT22;218;51.902;9.542;2023-04-03T04:25:16;5.00;1.00
463;DHT22;218;51.902;9.542;2023-04-03T04:27:43;4.90;1.00
463;DHT22;218;51.902;9.542;2023-04-03T04:30:11;4.90;1.00
463;DHT22;218;51.902;9.542;2023-04-03T04:32:38;4.90;1.00
463;DHT22;218;51.902;9.542;2023-04-03T04:35:06;4.90;1.00
463;DHT22;218;51.902;9.542;2023-04-03T04:37:33;4.80;1.00
463;DHT22;218;51.902;9.542;2023-04-03T04:40:00;6.60;1.00
463;DHT22;218;51.902;9.542;2023-04-03T04:42:28;4.80;1.00
463;DHT22;218;51.902;9.542;2023-04-03T04:44:55;4.70;1.00
463;DHT22;218;51.902;9.542;2023-04-03T04:47:23;4.10;1.00
463;DHT22;218;51.902;9.542;2023-04-03T04:49:50;4.70;1.00
463;DHT22;218;51.902;9.542;2023-04-03T04:52:17;4.70;1.00
463;DHT22;218;51.902;9.542;2023-04-03T04:54:45;4.70;1.00
463;DHT22;218;51.902;9.542;2023-04-03T04:57:12;4.60;1.00
463;DHT22;218;51.902;9.542;2023-04-03T04:59:40;4.60;1.00
463;DHT22;218;51.902;9.542;2023-04-03T05:02:07;4.60;1.00
463;DHT22;218;51.902;9.542;2023-04-03T05:04:34;4.60;1.00
463;DHT22;218;51.902;9.542;2023-04-03T05:07:01;4.60;1.00
463;DHT22;218;51.902;9.542;2023-04-03T05:09:28;4.60;1.00
463;DHT22;218;51.902;9.542;2023-04-03T05:11:55;4.60;1.00
463;DHT22;218;51.902;9.542;2023-04-03T05:14:22;4.60;1.00
463;DHT22;218;51.902;9.542;2023-04-03T05:16:50;4.60;1.00
463;DHT22;218;51.902;9.542;2023-04-03T05:19:19;4.60;1.00
463;DHT22;218;51.902;9.542;2023-04-03T05:21:46;4.70;1.00
463;DHT22;218;51.902;9.542;2023-04-03T05:24:14;4.70;1.00
463;DHT22;218;51.902;9.542;2023-04-03T05:26:41;4.70;1.00
463;DHT22;218;51.902;9.542;2023-04-03T05:29:08;4.70;1.00
463;DHT22;218;51.902;9.542;2023-04-03T05:31:35;4.80;1.00
463;DHT22;218;51.902;9.542;2023-04-03T05:34:04;4.80;1.00
463;DHT22;218;51.902;9.542;2023-04-03T05:36:31;4.80;1.00
463;DHT22;218;51.902;9.542;2023-04-03T05:38:58;4.80;1.00
463;DHT22;218;51.902;9.542;2023-04-03T05:41:25;4.80;1.00
463;DHT22;218;51.902;9.542;2023-04-03T05:43:52;4.90;1.00
463;DHT22;218;51.902;9.542;2023-04-03T05:46:19;4.80;1.00
463;DHT22;218;51.902;9.542;2023-04-03T05:48:47;4.80;1.00
463;DHT22;218;51.902;9.542;2023-04-03T05:51:17;4.80;1.00
463;DHT22;218;51.902;9.542;2023-04-03T05:53:45;6.00;1.00
463;DHT22;218;51.902;9.542;2023-04-03T05:56:14;4.90;1.00
463;DHT22;218;51.902;9.542;2023-04-03T05:58:41;4.80;1.00
463;DHT22;218;51.902;9.542;2023-04-03T06:01:08;4.90;1.00
463;DHT22;218;51.902;9.542;2023-04-03T06:03:35;4.80;1.00
463;DHT22;218;51.902;9.542;2023-04-03T06:06:03;4.80;1.00
463;DHT22;218;51.902;9.542;2023-04-03T06:08:32;4.80;1.00
463;DHT22;218;51.902;9.542;2023-04-03T06:11:00;4.80;1.00
463;DHT22;218;51.902;9.542;2023-04-03T06:13:27;4.90;1.00
463;DHT22;218;51.902;9.542;2023-04-03T06:15:54;4.90;1.00
463;DHT22;218;51.902;9.542;2023-04-03T06:18:22;4.90;1.00
463;DHT22;218;51.902;9.542;2023-04-03T06:20:48;4.90;1.00
463;DHT22;218;51.902;9.542;2023-04-03T06:23:16;5.10;1.00
463;DHT22;218;51.902;9.542;2023-04-03T06:25:44;4.90;1.00
463;DHT22;218;51.902;9.542;2023-04-03T06:28:11;5.00;1.00
463;DHT22;218;51.902;9.542;2023-04-03T06:30:38;5.00;1.00
463;DHT22;218;51.902;9.542;2023-04-03T06:33:05;5.00;1.00
463;DHT22;218;51.902;9.542;2023-04-03T06:35:32;5.00;1.00
463;DHT22;218;51.902;9.542;2023-04-03T06:38:00;5.10;1.00
463;DHT22;218;51.902;9.542;2023-04-03T06:40:29;5.20;1.00
463;DHT22;218;51.902;9.542;2023-04-03T06:42:58;5.20;1.00
463;DHT22;218;51.902;9.542;2023-04-03T06:45:25;5.20;1.00
463;DHT22;218;51.902;9.542;2023-04-03T06:47:52;5.20;1.00
463;DHT22;218;51.902;9.542;2023-04-03T06:50:19;6.00;1.00
463;DHT22;218;51.902;9.542;2023-04-03T06:52:46;5.30;1.00
463;DHT22;218;51.902;9.542;2023-04-03T06:55:13;5.30;1.00
463;DHT22;218;51.902;9.542;2023-04-03T06:57:40;5.60;1.00
463;DHT22;218;51.902;9.542;2023-04-03T07:00:10;5.50;1.00
463;DHT22;218;51.902;9.542;2023-04-03T07:02:37;5.50;1.00
463;DHT22;218;51.902;9.542;2023-04-03T07:05:05;4.90;1.00
463;DHT22;218;51.902;9.542;2023-04-03T07:07:32;5.50;1.00
463;DHT22;218;51.902;9.542;2023-04-03T07:09:59;5.60;1.00
463;DHT22;218;51.902;9.542;2023-04-03T07:12:26;5.60;1.00
463;DHT22;218;51.902;9.542;2023-04-03T07:14:53;5.70;1.00
463;DHT22;218;51.902;9.542;2023-04-03T07:17:22;6.20;1.00
463;DHT22;218;51.902;9.542;2023-04-03T07:19:49;5.70;1.00
463;DHT22;218;51.902;9.542;2023-04-03T07:22:16;6.00;1.00
463;DHT22;218;51.902;9.542;2023-04-03T07:24:43;5.90;1.00
463;DHT22;218;51.902;9.542;2023-04-03T07:27:10;5.80;1.00
463;DHT22;218;51.902;9.542;2023-04-03T07:29:38;5.80;1.00
463;DHT22;218;51.902;9.542;2023-04-03T07:32:05;5.90;1.00
463;DHT22;218;51.902;9.542;2023-04-03T07:34:34;5.90;1.00
463;DHT22;218;51.902;9.542;2023-04-03T07:37:01;6.00;1.00
463;DHT22;218;51.902;9.542;2023-04-03T07:39:30;6.00;1.00
463;DHT22;218;51.902;9.542;2023-04-03T07:41:57;6.10;1.00
463;DHT22;218;51.902;9.542;2023-04-03T07:44:24;6.10;1.00
463;DHT22;218;51.902;9.542;2023-04-03T07:46:51;6.60;1.00
463;DHT22;218;51.902;9.542;2023-04-03T07:49:18;7.90;1.00
463;DHT22;218;51.902;9.542;2023-04-03T07:51:46;6.20;1.00
463;DHT22;218;51.902;9.542;2023-04-03T07:54:14;6.30;1.00
463;DHT22;218;51.902;9.542;2023-04-03T07:56:41;6.40;1.00
463;DHT22;218;51.902;9.542;2023-04-03T07:59:08;7.60;1.00
463;DHT22;218;51.902;9.542;2023-04-03T08:01:36;6.40;1.00
463;DHT22;218;51.902;9.542;2023-04-03T08:04:03;6.40;1.00
463;DHT22;218;51.902;9.542;2023-04-03T08:06:31;6.50;1.00
463;DHT22;218;51.902;9.542;2023-04-03T08:09:02;6.90;1.00
463;DHT22;218;51.902;9.542;2023-04-03T08:11:29;6.60;1.00
463;DHT22;218;51.902;9.542;2023-04-03T08:13:56;6.80;1.00
463;DHT22;218;51.902;9.542;2023-04-03T08:16:24;6.70;1.00
463;DHT22;218;51.902;9.542;2023-04-03T08:18:52;6.80;1.00
463;DHT22;218;51.902;9.542;2023-04-03T08:21:19;7.00;1.00
463;DHT22;218;51.902;9.542;2023-04-03T08:23:48;7.10;1.00
463;DHT22;218;51.902;9.542;2023-04-03T08:26:20;7.10;1.00
463;DHT22;218;51.902;9.542;2023-04-03T08:28:47;7.20;1.00
463;DHT22;218;51.902;9.542;2023-04-03T08:31:17;7.40;1.00
463;DHT22;218;51.902;9.542;2023-04-03T08:33:45;7.40;1.00
463;DHT22;218;51.902;9.542;2023-04-03T08:36:17;7.50;1.00
463;DHT22;218;51.902;9.542;2023-04-03T08:38:45;7.60;1.00
463;DHT22;218;51.902;9.542;2023-04-03T08:41:20;7.70;1.00
463;DHT22;218;51.902;9.542;2023-04-03T08:46:42;8.00;1.00
463;DHT22;218;51.902;9.542;2023-04-03T08:49:16;8.00;1.00
463;DHT22;218;51.902;9.542;2023-04-03T08:51:47;8.10;1.00
463;DHT22;218;51.902;9.542;2023-04-03T08:54:24;8.30;1.00
463;DHT22;218;51.902;9.542;2023-04-03T08:56:56;8.50;1.00
463;DHT22;218;51.902;9.542;2023-04-03T08:59:27;8.30;1.00
463;DHT22;218;51.902;9.542;2023-04-03T09:04:24;8.80;1.00
463;DHT22;218;51.902;9.542;2023-04-03T09:09:30;8.80;1.00
463;DHT22;218;51.902;9.542;2023-04-03T09:12:06;9.10;1.00
463;DHT22;218;51.902;9.542;2023-04-03T09:14:42;9.00;1.00
463;DHT22;218;51.902;9.542;2023-04-03T09:22:20;9.50;1.00
463;DHT22;218;51.902;9.542;2023-04-03T09:29:49;9.80;1.00
463;DHT22;218;51.902;9.542;2023-04-03T09:34:49;10.00;1.00
463;DHT22;218;51.902;9.542;2023-04-03T09:37:34;10.20;1.00
463;DHT22;218;51.902;9.542;2023-04-03T09:40:03;10.80;1.00
463;DHT22;218;51.902;9.542;2023-04-03T09:47:29;10.70;1.00
463;DHT22;218;51.902;9.542;2023-04-03T09:52:47;11.00;1.00
463;DHT22;218;51.902;9.542;2023-04-03T09:57:45;11.00;1.00
463;DHT22;218;51.902;9.542;2023-04-03T10:00:20;11.00;1.00
463;DHT22;218;51.902;9.542;2023-04-03T10:02:51;11.20;1.00
463;DHT22;218;51.902;9.542;2023-04-03T10:08:08;11.20;1.00
463;DHT22;218;51.902;9.542;2023-04-03T10:13:11;11.10;1.00
463;DHT22;218;51.902;9.542;2023-04-03T10:18:22;11.50;1.00
463;DHT22;218;51.902;9.542;2023-04-03T10:23:26;11.30;1.00
463;DHT22;218;51.902;9.542;2023-04-03T10:26:03;11.50;1.00
463;DHT22;218;51.902;9.542;2023-04-03T10:28:45;11.40;1.00
463;DHT22;218;51.902;9.542;2023-04-03T10:36:28;11.40;1.00
463;DHT22;218;51.902;9.542;2023-04-03T10:39:02;11.40;1.00
463;DHT22;218;51.902;9.542;2023-04-03T10:46:44;11.80;1.00
463;DHT22;218;51.902;9.542;2023-04-03T10:51:48;11.90;1.00
463;DHT22;218;51.902;9.542;2023-04-03T11:01:55;12.10;1.00
463;DHT22;218;51.902;9.542;2023-04-03T11:09:25;12.30;1.00
463;DHT22;218;51.902;9.542;2023-04-03T11:11:56;12.20;1.00
463;DHT22;218;51.902;9.542;2023-04-03T11:19:34;12.00;1.00
463;DHT22;218;51.902;9.542;2023-04-03T11:27:02;12.30;1.00
463;DHT22;218;51.902;9.542;2023-04-03T11:29:35;12.10;1.00
463;DHT22;218;51.902;9.542;2023-04-03T11:32:23;12.00;1.00
463;DHT22;218;51.902;9.542;2023-04-03T11:47:45;12.30;1.00
463;DHT22;218;51.902;9.542;2023-04-03T12:01:03;13.10;1.00
463;DHT22;218;51.902;9.542;2023-04-03T12:12:30;13.10;1.00
463;DHT22;218;51.902;9.542;2023-04-03T12:23:08;13.30;1.00
463;DHT22;218;51.902;9.542;2023-04-03T12:25:50;13.20;1.00
463;DHT22;218;51.902;9.542;2023-04-03T12:44:05;13.20;1.00
463;DHT22;218;51.902;9.542;2023-04-03T12:46:38;13.20;1.00
463;DHT22;218;51.902;9.542;2023-04-03T12:49:22;13.30;1.00
463;DHT22;218;51.902;9.542;2023-04-03T12:51:51;13.90;1.00
463;DHT22;218;51.902;9.542;2023-04-03T12:56:47;13.50;1.00
463;DHT22;218;51.902;9.542;2023-04-03T12:59:18;13.90;1.00
463;DHT22;218;51.902;9.542;2023-04-03T13:11:54;14.00;1.00
463;DHT22;218;51.902;9.542;2023-04-03T13:16:54;14.00;1.00
463;DHT22;218;51.902;9.542;2023-04-03T13:19:25;14.10;1.00
463;DHT22;218;51.902;9.542;2023-04-03T13:26:51;14.10;1.00
463;DHT22;218;51.902;9.542;2023-04-03T13:29:23;14.00;1.00
463;DHT22;218;51.902;9.542;2023-04-03T13:31:53;14.00;1.00
463;DHT22;218;51.902;9.542;2023-04-03T13:34:24;13.80;1.00
463;DHT22;218;51.902;9.542;2023-04-03T13:36:57;13.90;1.00
463;DHT22;218;51.902;9.542;2023-04-03T13:46:55;14.10;1.00
463;DHT22;218;51.902;9.542;2023-04-03T13:56:59;13.60;1.00
463;DHT22;218;51.902;9.542;2023-04-03T13:59:29;13.90;1.00
463;DHT22;218;51.902;9.542;2023-04-03T14:02:14;14.10;1.00
463;DHT22;218;51.902;9.542;2023-04-03T14:04:52;13.90;1.00
463;DHT22;218;51.902;9.542;2023-04-03T14:07:22;13.90;1.00
463;DHT22;218;51.902;9.542;2023-04-03T14:09:49;13.60;1.00
463;DHT22;218;51.902;9.542;2023-04-03T14:14:46;13.90;1.00
463;DHT22;218;51.902;9.542;2023-04-03T14:42:02;13.90;1.00
463;DHT22;218;51.902;9.542;2023-04-03T14:54:22;13.80;1.00
463;DHT22;218;51.902;9.542;2023-04-03T14:56:52;13.70;1.00
463;DHT22;218;51.902;9.542;2023-04-03T15:01:47;13.70;1.00
463;DHT22;218;51.902;9.542;2023-04-03T15:06:42;13.60;1.00
463;DHT22;218;51.902;9.542;2023-04-03T15:09:18;14.00;1.00
463;DHT22;218;51.902;9.542;2023-04-03T15:16:42;14.00;1.00
463;DHT22;218;51.902;9.542;2023-04-03T15:26:31;14.20;1.00
463;DHT22;218;51.902;9.542;2023-04-03T15:28:58;14.00;1.00
463;DHT22;218;51.902;9.542;2023-04-03T15:31:27;14.20;1.00
463;DHT22;218;51.902;9.542;2023-04-03T15:38:50;13.80;1.00
463;DHT22;218;51.902;9.542;2023-04-03T16:00:58;13.50;1.00
463;DHT22;218;51.902;9.542;2023-04-03T16:03:24;13.50;1.00
463;DHT22;218;51.902;9.542;2023-04-03T16:20:39;13.10;1.00
463;DHT22;218;51.902;9.542;2023-04-03T16:23:07;13.20;1.00
463;DHT22;218;51.902;9.542;2023-04-03T16:30:28;13.00;1.00
463;DHT22;218;51.902;9.542;2023-04-03T16:32:56;13.00;1.00
463;DHT22;218;51.902;9.542;2023-04-03T16:35:23;13.00;1.00
463;DHT22;218;51.902;9.542;2023-04-03T16:45:13;12.20;1.00
463;DHT22;218;51.902;9.542;2023-04-03T16:59:58;12.70;1.00
463;DHT22;218;51.902;9.542;2023-04-03T17:02:25;12.50;1.00
463;DHT22;218;51.902;9.542;2023-04-03T17:07:20;11.40;1.00
463;DHT22;218;51.902;9.542;2023-04-03T17:17:12;10.20;1.00
463;DHT22;218;51.902;9.542;2023-04-03T17:19:40;9.60;1.00
463;DHT22;218;51.902;9.542;2023-04-03T17:22:08;9.40;1.00
463;DHT22;218;51.902;9.542;2023-04-03T17:34:26;9.40;1.00
463;DHT22;218;51.902;9.542;2023-04-03T17:36:53;9.50;1.00
463;DHT22;218;51.902;9.542;2023-04-03T17:39:20;10.20;1.00
463;DHT22;218;51.902;9.542;2023-04-03T17:41:47;9.90;1.00
463;DHT22;218;51.902;9.542;2023-04-03T17:44:14;10.00;1.00
463;DHT22;218;51.902;9.542;2023-04-03T17:46:41;9.10;1.00
463;DHT22;218;51.902;9.542;2023-04-03T17:49:09;9.60;1.00
463;DHT22;218;51.902;9.542;2023-04-03T17:59:01;9.60;1.00
463;DHT22;218;51.902;9.542;2023-04-03T18:01:30;9.00;1.00
463;DHT22;218;51.902;9.542;2023-04-03T18:06:29;8.50;1.00
463;DHT22;218;51.902;9.542;2023-04-03T18:11:27;8.20;1.00
463;DHT22;218;51.902;9.542;2023-04-03T18:13:57;7.90;1.00
463;DHT22;218;51.902;9.542;2023-04-03T18:16:26;7.80;1.00
463;DHT22;218;51.902;9.542;2023-04-03T18:21:20;7.90;1.00
463;DHT22;218;51.902;9.542;2023-04-03T18:23:50;8.30;1.00
463;DHT22;218;51.902;9.542;2023-04-03T18:28:49;8.00;1.00
463;DHT22;218;51.902;9.542;2023-04-03T18:36:13;8.20;1.00
463;DHT22;218;51.902;9.542;2023-04-03T18:41:08;8.20;1.00
463;DHT22;218;51.902;9.542;2023-04-03T18:43:36;8.10;1.00
463;DHT22;218;51.902;9.542;2023-04-03T18:46:04;8.00;1.00
463;DHT22;218;51.902;9.542;2023-04-03T18:50:59;7.70;1.00
463;DHT22;218;51.902;9.542;2023-04-03T18:53:27;7.90;1.00
463;DHT22;218;51.902;9.542;2023-04-03T18:55:54;7.80;1.00
463;DHT22;218;51.902;9.542;2023-04-03T19:10:39;6.90;1.00
463;DHT22;218;51.902;9.542;2023-04-03T19:13:06;6.70;1.00
463;DHT22;218;51.902;9.542;2023-04-03T19:15:34;6.60;1.00
463;DHT22;218;51.902;9.542;2023-04-03T19:18:01;6.50;1.00
463;DHT22;218;51.902;9.542;2023-04-03T19:20:28;6.30;1.00
463;DHT22;218;51.902;9.542;2023-04-03T19:22:55;6.20;1.00
463;DHT22;218;51.902;9.542;2023-04-03T19:25:22;6.10;1.00
463;DHT22;218;51.902;9.542;2023-04-03T19:27:50;5.90;1.00
463;DHT22;218;51.902;9.542;2023-04-03T19:30:17;5.90;1.00
463;DHT22;218;51.902;9.542;2023-04-03T19:32:46;5.80;1.00
463;DHT22;218;51.902;9.542;2023-04-03T19:35:13;5.80;1.00
463;DHT22;218;51.902;9.542;2023-04-03T19:37:40;5.70;1.00
463;DHT22;218;51.902;9.542;2023-04-03T19:40:08;5.60;1.00
463;DHT22;218;51.902;9.542;2023-04-03T19:42:35;5.50;1.00
463;DHT22;218;51.902;9.542;2023-04-03T19:45:06;5.50;1.00
463;DHT22;218;51.902;9.542;2023-04-03T19:47:33;5.60;1.00
463;DHT22;218;51.902;9.542;2023-04-03T19:50:03;5.50;1.00
463;DHT22;218;51.902;9.542;2023-04-03T19:52:30;5.50;1.00
463;DHT22;218;51.902;9.542;2023-04-03T19:54:56;5.50;1.00
463;DHT22;218;51.902;9.542;2023-04-03T19:57:24;5.50;1.00
463;DHT22;218;51.902;9.542;2023-04-03T19:59:51;5.50;1.00
463;DHT22;218;51.902;9.542;2023-04-03T20:02:18;5.50;1.00
463;DHT22;218;51.902;9.542;2023-04-03T20:04:46;5.70;1.00
463;DHT22;218;51.902;9.542;2023-04-03T20:07:14;5.40;1.00
463;DHT22;218;51.902;9.542;2023-04-03T20:09:41;5.20;1.00
463;DHT22;218;51.902;9.542;2023-04-03T20:12:08;5.20;1.00
463;DHT22;218;51.902;9.542;2023-04-03T20:14:35;5.10;1.00
463;DHT22;218;51.902;9.542;2023-04-03T20:17:04;5.80;1.00
463;DHT22;218;51.902;9.542;2023-04-03T20:19:31;4.90;1.00
463;DHT22;218;51.902;9.542;2023-04-03T20:21:59;4.90;1.00
463;DHT22;218;51.902;9.542;2023-04-03T20:24:27;4.80;1.00
463;DHT22;218;51.902;9.542;2023-04-03T20:26:55;4.70;1.00
463;DHT22;218;51.902;9.542;2023-04-03T20:29:22;5.30;1.00
463;DHT22;218;51.902;9.542;2023-04-03T20:31:50;4.60;1.00
463;DHT22;218;51.902;9.542;2023-04-03T20:34:18;4.60;1.00
463;DHT22;218;51.902;9.542;2023-04-03T20:36:45;4.50;1.00
463;DHT22;218;51.902;9.542;2023-04-03T20:39:12;4.90;1.00
463;DHT22;218;51.902;9.542;2023-04-03T20:41:40;4.40;1.00
463;DHT22;218;51.902;9.542;2023-04-03T20:44:07;5.70;1.00
463;DHT22;218;51.902;9.542;2023-04-03T20:46:35;4.30;1.00
463;DHT22;218;51.902;9.542;2023-04-03T20:49:02;4.20;1.00
463;DHT22;218;51.902;9.542;2023-04-03T20:51:28;4.20;1.00
463;DHT22;218;51.902;9.542;2023-04-03T20:53:55;4.10;1.00
463;DHT22;218;51.902;9.542;2023-04-03T20:56:22;4.10;1.00
463;DHT22;218;51.902;9.542;2023-04-03T20:58:51;4.00;1.00
463;DHT22;218;51.902;9.542;2023-04-03T21:01:19;4.00;1.00
463;DHT22;218;51.902;9.542;2023-04-03T21:03:47;4.00;1.00
463;DHT22;218;51.902;9.542;2023-04-03T21:21:04;3.50;1.00
463;DHT22;218;51.902;9.542;2023-04-03T21:23:31;3.40;1.00
463;DHT22;218;51.902;9.542;2023-04-03T21:25:59;3.30;1.00
463;DHT22;218;51.902;9.542;2023-04-03T21:28:26;3.20;1.00
463;DHT22;218;51.902;9.542;2023-04-03T21:30:53;3.10;1.00
463;DHT22;218;51.902;9.542;2023-04-03T21:33:22;3.00;1.00
463;DHT22;218;51.902;9.542;2023-04-03T21:35:48;2.90;1.00
463;DHT22;218;51.902;9.542;2023-04-03T21:38:22;2.90;1.00
463;DHT22;218;51.902;9.542;2023-04-03T21:40:49;2.90;1.00
463;DHT22;218;51.902;9.542;2023-04-03T21:43:16;2.80;1.00
463;DHT22;218;51.902;9.542;2023-04-03T21:45:43;2.70;1.00
463;DHT22;218;51.902;9.542;2023-04-03T21:48:11;2.70;1.00
463;DHT22;218;51.902;9.542;2023-04-03T21:50:39;2.60;1.00
463;DHT22;218;51.902;9.542;2023-04-03T21:53:06;2.60;1.00
463;DHT22;218;51.902;9.542;2023-04-03T21:55:33;2.50;1.00
463;DHT22;218;51.902;9.542;2023-04-03T21:58:00;2.40;1.00
463;DHT22;218;51.902;9.542;2023-04-03T22:00:27;3.10;1.00
463;DHT22;218;51.902;9.542;2023-04-03T22:02:54;2.40;1.00
463;DHT22;218;51.902;9.542;2023-04-03T22:05:21;4.50;1.00
463;DHT22;218;51.902;9.542;2023-04-03T22:07:49;2.20;1.00
463;DHT22;218;51.902;9.542;2023-04-03T22:10:17;2.20;1.00
463;DHT22;218;51.902;9.542;2023-04-03T22:12:44;2.20;1.00
463;DHT22;218;51.902;9.542;2023-04-03T22:15:11;2.10;1.00
463;DHT22;218;51.902;9.542;2023-04-03T22:17:38;2.10;1.00
463;DHT22;218;51.902;9.542;2023-04-03T22:20:06;2.00;1.00
463;DHT22;218;51.902;9.542;2023-04-03T22:22:34;2.00;1.00
463;DHT22;218;51.902;9.542;2023-04-03T22:25:02;1.90;1.00
463;DHT22;218;51.902;9.542;2023-04-03T22:27:33;1.90;1.00
463;DHT22;218;51.902;9.542;2023-04-03T22:30:00;3.60;1.00
463;DHT22;218;51.902;9.542;2023-04-03T22:32:28;3.90;1.00
463;DHT22;218;51.902;9.542;2023-04-03T22:34:54;4.10;1.00
463;DHT22;218;51.902;9.542;2023-04-03T22:37:21;2.20;1.00
463;DHT22;218;51.902;9.542;2023-04-03T22:39:48;2.00;1.00
463;DHT22;218;51.902;9.542;2023-04-03T22:42:17;1.90;1.00
463;DHT22;218;51.902;9.542;2023-04-03T22:44:43;1.80;1.00
463;DHT22;218;51.902;9.542;2023-04-03T22:47:10;1.70;1.00
463;DHT22;218;51.902;9.542;2023-04-03T22:49:37;1.70;1.00
463;DHT22;218;51.902;9.542;2023-04-03T22:52:04;1.60;1.00
463;DHT22;218;51.902;9.542;2023-04-03T22:54:31;1.60;1.00
463;DHT22;218;51.902;9.542;2023-04-03T22:56:58;2.00;1.00
463;DHT22;218;51.902;9.542;2023-04-03T22:59:26;1.50;1.00
463;DHT22;218;51.902;9.542;2023-04-03T23:01:53;1.70;1.00
463;DHT22;218;51.902;9.542;2023-04-03T23:04:20;2.00;1.00
463;DHT22;218;51.902;9.542;2023-04-03T23:06:47;2.20;1.00
463;DHT22;218;51.902;9.542;2023-04-03T23:09:14;2.50;1.00
463;DHT22;218;51.902;9.542;2023-04-03T23:11:41;2.60;1.00
463;DHT22;218;51.902;9.542;2023-04-03T23:14:08;2.80;1.00
463;DHT22;218;51.902;9.542;2023-04-03T23:16:36;3.00;1.00
463;DHT22;218;51.902;9.542;2023-04-03T23:19:03;3.10;1.00
463;DHT22;218;51.902;9.542;2023-04-03T23:21:31;3.20;1.00
463;DHT22;218;51.902;9.542;2023-04-03T23:23:58;3.20;1.00
463;DHT22;218;51.902;9.542;2023-04-03T23:26:25;3.30;1.00
463;DHT22;218;51.902;9.542;2023-04-03T23:28:52;3.30;1.00
463;DHT22;218;51.902;9.542;2023-04-03T23:31:19;3.30;1.00
463;DHT22;218;51.902;9.542;2023-04-03T23:33:47;3.30;1.00
463;DHT22;218;51.902;9.542;2023-04-03T23:36:14;3.30;1.00
463;DHT22;218;51.902;9.542;2023-04-03T23:38:42;3.30;1.00
463;DHT22;218;51.902;9.542;2023-04-03T23:41:09;3.30;1.00
463;DHT22;218;51.902;9.542;2023-04-03T23:43:36;3.20;1.00
463;DHT22;218;51.902;9.542;2023-04-03T23:46:04;3.40;1.00
463;DHT22;218;51.902;9.542;2023-04-03T23:48:31;3.30;1.00
463;DHT22;218;51.902;9.542;2023-04-03T23:50:59;3.30;1.00
463;DHT22;218;51.902;9.542;2023-04-03T23:53:26;3.20;1.00
463;DHT22;218;51.902;9.542;2023-04-03T23:55:53;3.20;1.00
463;DHT22;218;51.902;9.542;2023-04-03T23:58:20;3.20;1.00
